sensor_id;sensor_type;location;lat;lon;timestamp;P1;durP1;ratioP1;P2;durP2;ratioP2
48215;SDS011;34005;48.844;10.098;2023-04-25T00:02:00;3.75;;;3.15;;
48215;SDS011;34005;48.844;10.098;2023-04-25T00:04:30;3.35;;;3.05;;
48215;SDS011;34005;48.844;10.098;2023-04-25T00:07:00;5.28;;;3.55;;
48215;SDS011;34005;48.844;10.098;2023-04-25T00:09:28;3.55;;;2.67;;
48215;SDS011;34005;48.844;10.098;2023-04-25T00:11:56;3.25;;;2.60;;
48215;SDS011;34005;48.844;10.098;2023-04-25T00:14:24;2.60;;;2.30;;
48215;SDS011;34005;48.844;10.098;2023-04-25T00:16:52;4.53;;;3.20;;
48215;SDS011;34005;48.844;10.098;2023-04-25T00:19:20;5.75;;;2.90;;
48215;SDS011;34005;48.844;10.098;2023-04-25T00:21:49;3.00;;;2.70;;
48215;SDS011;34005;48.844;10.098;2023-04-25T00:24:16;2.55;;;2.35;;
48215;SDS011;34005;48.844;10.098;2023-04-25T00:26:44;3.05;;;2.42;;
48215;SDS011;34005;48.844;10.098;2023-04-25T00:29:11;3.63;;;2.40;;
48215;SDS011;34005;48.844;10.098;2023-04-25T00:31:39;3.58;;;2.80;;
48215;SDS011;34005;48.844;10.098;2023-04-25T00:34:07;3.72;;;2.80;;
48215;SDS011;34005;48.844;10.098;2023-04-25T00:36:35;4.65;;;3.50;;
48215;SDS011;34005;48.844;10.098;2023-04-25T00:39:05;5.15;;;3.10;;
48215;SDS011;34005;48.844;10.098;2023-04-25T00:41:33;3.65;;;3.08;;
48215;SDS011;34005;48.844;10.098;2023-04-25T00:44:02;3.00;;;2.78;;
48215;SDS011;34005;48.844;10.098;2023-04-25T00:46:31;3.72;;;3.15;;
48215;SDS011;34005;48.844;10.098;2023-04-25T00:48:59;4.70;;;3.22;;
48215;SDS011;34005;48.844;10.098;2023-04-25T00:51:27;3.30;;;2.75;;
48215;SDS011;34005;48.844;10.098;2023-04-25T00:53:55;3.65;;;2.83;;
48215;SDS011;34005;48.844;10.098;2023-04-25T00:56:24;3.10;;;2.80;;
48215;SDS011;34005;48.844;10.098;2023-04-25T00:58:52;3.42;;;3.13;;
48215;SDS011;34005;48.844;10.098;2023-04-25T01:01:22;4.57;;;3.03;;
48215;SDS011;34005;48.844;10.098;2023-04-25T01:03:50;4.68;;;2.75;;
48215;SDS011;34005;48.844;10.098;2023-04-25T01:06:20;2.72;;;2.47;;
48215;SDS011;34005;48.844;10.098;2023-04-25T01:08:48;3.17;;;2.30;;
48215;SDS011;34005;48.844;10.098;2023-04-25T01:11:16;4.50;;;2.40;;
48215;SDS011;34005;48.844;10.098;2023-04-25T01:13:46;2.05;;;1.88;;
48215;SDS011;34005;48.844;10.098;2023-04-25T01:16:14;2.33;;;2.08;;
48215;SDS011;34005;48.844;10.098;2023-04-25T01:18:42;5.85;;;2.10;;
48215;SDS011;34005;48.844;10.098;2023-04-25T01:21:12;2.35;;;1.90;;
48215;SDS011;34005;48.844;10.098;2023-04-25T01:23:41;2.88;;;2.13;;
48215;SDS011;34005;48.844;10.098;2023-04-25T01:26:10;1.80;;;1.70;;
48215;SDS011;34005;48.844;10.098;2023-04-25T01:28:39;2.63;;;1.85;;
48215;SDS011;34005;48.844;10.098;2023-04-25T01:31:10;3.17;;;2.00;;
48215;SDS011;34005;48.844;10.098;2023-04-25T01:33:41;3.13;;;1.85;;
48215;SDS011;34005;48.844;10.098;2023-04-25T01:36:11;2.25;;;2.05;;
48215;SDS011;34005;48.844;10.098;2023-04-25T01:38:42;2.95;;;2.05;;
48215;SDS011;34005;48.844;10.098;2023-04-25T01:41:37;3.25;;;1.83;;
48215;SDS011;34005;48.844;10.098;2023-04-25T01:44:07;2.42;;;1.83;;
48215;SDS011;34005;48.844;10.098;2023-04-25T01:46:41;2.27;;;1.80;;
48215;SDS011;34005;48.844;10.098;2023-04-25T01:49:19;3.63;;;1.92;;
48215;SDS011;34005;48.844;10.098;2023-04-25T01:51:48;2.65;;;1.60;;
48215;SDS011;34005;48.844;10.098;2023-04-25T01:54:17;2.08;;;1.98;;
48215;SDS011;34005;48.844;10.098;2023-04-25T01:56:49;1.98;;;1.60;;
48215;SDS011;34005;48.844;10.098;2023-04-25T01:59:26;3.53;;;1.70;;
48215;SDS011;34005;48.844;10.098;2023-04-25T02:01:54;2.28;;;2.00;;
48215;SDS011;34005;48.844;10.098;2023-04-25T02:43:19;2.50;;;2.30;;
48215;SDS011;34005;48.844;10.098;2023-04-25T02:48:28;2.65;;;2.33;;
48215;SDS011;34005;48.844;10.098;2023-04-25T03:31:11;6.10;;;2.78;;
48215;SDS011;34005;48.844;10.098;2023-04-25T03:38:00;3.47;;;3.17;;
48215;SDS011;34005;48.844;10.098;2023-04-25T05:43:24;4.03;;;3.20;;
48215;SDS011;34005;48.844;10.098;2023-04-25T05:45:53;7.60;;;3.40;;
48215;SDS011;34005;48.844;10.098;2023-04-25T05:48:22;3.38;;;2.97;;
48215;SDS011;34005;48.844;10.098;2023-04-25T05:50:50;3.60;;;3.30;;
48215;SDS011;34005;48.844;10.098;2023-04-25T05:53:19;3.97;;;3.40;;
48215;SDS011;34005;48.844;10.098;2023-04-25T05:55:48;4.97;;;3.08;;
48215;SDS011;34005;48.844;10.098;2023-04-25T05:58:16;4.32;;;3.63;;
48215;SDS011;34005;48.844;10.098;2023-04-25T06:00:46;3.75;;;2.83;;
48215;SDS011;34005;48.844;10.098;2023-04-25T06:03:15;4.03;;;2.83;;
48215;SDS011;34005;48.844;10.098;2023-04-25T06:05:46;4.37;;;3.03;;
48215;SDS011;34005;48.844;10.098;2023-04-25T06:08:16;11.25;;;3.17;;
48215;SDS011;34005;48.844;10.098;2023-04-25T06:10:49;5.03;;;3.00;;
48215;SDS011;34005;48.844;10.098;2023-04-25T06:13:18;3.40;;;3.10;;
48215;SDS011;34005;48.844;10.098;2023-04-25T06:15:50;4.90;;;3.42;;
48215;SDS011;34005;48.844;10.098;2023-04-25T06:18:19;4.50;;;3.15;;
48215;SDS011;34005;48.844;10.098;2023-04-25T06:20:48;5.75;;;3.05;;
48215;SDS011;34005;48.844;10.098;2023-04-25T06:23:17;5.40;;;2.70;;
48215;SDS011;34005;48.844;10.098;2023-04-25T06:25:46;5.43;;;3.28;;
48215;SDS011;34005;48.844;10.098;2023-04-25T06:28:15;4.38;;;3.35;;
48215;SDS011;34005;48.844;10.098;2023-04-25T06:30:44;3.78;;;2.70;;
48215;SDS011;34005;48.844;10.098;2023-04-25T06:33:16;5.75;;;3.70;;
48215;SDS011;34005;48.844;10.098;2023-04-25T06:35:59;5.28;;;3.00;;
48215;SDS011;34005;48.844;10.098;2023-04-25T06:38:28;4.13;;;2.88;;
48215;SDS011;34005;48.844;10.098;2023-04-25T06:40:58;4.07;;;3.28;;
48215;SDS011;34005;48.844;10.098;2023-04-25T06:43:27;4.97;;;3.38;;
48215;SDS011;34005;48.844;10.098;2023-04-25T06:45:59;4.30;;;3.47;;
48215;SDS011;34005;48.844;10.098;2023-04-25T06:48:30;5.95;;;2.75;;
48215;SDS011;34005;48.844;10.098;2023-04-25T06:50:59;4.03;;;3.17;;
48215;SDS011;34005;48.844;10.098;2023-04-25T06:53:28;3.78;;;2.67;;
48215;SDS011;34005;48.844;10.098;2023-04-25T06:55:57;5.95;;;3.25;;
48215;SDS011;34005;48.844;10.098;2023-04-25T06:58:29;5.70;;;3.47;;
48215;SDS011;34005;48.844;10.098;2023-04-25T07:01:00;3.67;;;3.28;;
48215;SDS011;34005;48.844;10.098;2023-04-25T07:03:33;4.65;;;3.58;;
48215;SDS011;34005;48.844;10.098;2023-04-25T07:06:02;4.43;;;3.67;;
48215;SDS011;34005;48.844;10.098;2023-04-25T07:08:31;5.38;;;3.72;;
48215;SDS011;34005;48.844;10.098;2023-04-25T07:11:01;5.25;;;3.80;;
48215;SDS011;34005;48.844;10.098;2023-04-25T07:13:30;6.07;;;3.63;;
48215;SDS011;34005;48.844;10.098;2023-04-25T07:15:58;4.28;;;3.88;;
48215;SDS011;34005;48.844;10.098;2023-04-25T07:18:27;4.05;;;3.65;;
48215;SDS011;34005;48.844;10.098;2023-04-25T07:20:56;3.95;;;3.60;;
48215;SDS011;34005;48.844;10.098;2023-04-25T07:23:23;3.78;;;3.38;;
48215;SDS011;34005;48.844;10.098;2023-04-25T07:25:51;4.18;;;3.60;;
48215;SDS011;34005;48.844;10.098;2023-04-25T07:28:18;3.63;;;3.30;;
48215;SDS011;34005;48.844;10.098;2023-04-25T07:30:46;4.55;;;3.85;;
48215;SDS011;34005;48.844;10.098;2023-04-25T07:33:14;5.72;;;4.55;;
48215;SDS011;34005;48.844;10.098;2023-04-25T07:35:41;7.63;;;4.18;;
48215;SDS011;34005;48.844;10.098;2023-04-25T07:38:10;7.03;;;4.65;;
48215;SDS011;34005;48.844;10.098;2023-04-25T07:40:38;6.50;;;4.22;;
48215;SDS011;34005;48.844;10.098;2023-04-25T07:43:06;4.68;;;3.80;;
48215;SDS011;34005;48.844;10.098;2023-04-25T07:45:33;6.47;;;4.15;;
48215;SDS011;34005;48.844;10.098;2023-04-25T07:48:01;4.10;;;3.67;;
48215;SDS011;34005;48.844;10.098;2023-04-25T07:50:29;4.45;;;4.05;;
48215;SDS011;34005;48.844;10.098;2023-04-25T07:52:57;4.15;;;3.72;;
48215;SDS011;34005;48.844;10.098;2023-04-25T07:55:26;5.07;;;3.88;;
48215;SDS011;34005;48.844;10.098;2023-04-25T07:57:54;4.78;;;4.10;;
48215;SDS011;34005;48.844;10.098;2023-04-25T08:00:22;3.92;;;3.58;;
48215;SDS011;34005;48.844;10.098;2023-04-25T08:02:49;3.67;;;3.38;;
48215;SDS011;34005;48.844;10.098;2023-04-25T08:05:18;3.50;;;3.20;;
48215;SDS011;34005;48.844;10.098;2023-04-25T08:07:48;8.35;;;3.30;;
48215;SDS011;34005;48.844;10.098;2023-04-25T08:10:16;6.70;;;3.72;;
48215;SDS011;34005;48.844;10.098;2023-04-25T08:12:45;4.93;;;3.22;;
48215;SDS011;34005;48.844;10.098;2023-04-25T08:15:12;4.00;;;3.50;;
48215;SDS011;34005;48.844;10.098;2023-04-25T08:17:40;5.75;;;3.38;;
48215;SDS011;34005;48.844;10.098;2023-04-25T08:20:10;5.57;;;3.53;;
48215;SDS011;34005;48.844;10.098;2023-04-25T08:22:38;4.90;;;3.80;;
48215;SDS011;34005;48.844;10.098;2023-04-25T08:25:06;7.63;;;3.40;;
48215;SDS011;34005;48.844;10.098;2023-04-25T08:27:34;4.28;;;3.38;;
48215;SDS011;34005;48.844;10.098;2023-04-25T08:30:04;3.83;;;3.38;;
48215;SDS011;34005;48.844;10.098;2023-04-25T08:32:34;6.43;;;3.47;;
48215;SDS011;34005;48.844;10.098;2023-04-25T08:35:04;3.13;;;2.85;;
48215;SDS011;34005;48.844;10.098;2023-04-25T08:37:32;2.90;;;2.70;;
48215;SDS011;34005;48.844;10.098;2023-04-25T08:40:00;2.88;;;2.67;;
48215;SDS011;34005;48.844;10.098;2023-04-25T08:42:28;2.40;;;2.20;;
48215;SDS011;34005;48.844;10.098;2023-04-25T08:44:58;2.92;;;2.50;;
48215;SDS011;34005;48.844;10.098;2023-04-25T08:47:33;3.13;;;2.83;;
48215;SDS011;34005;48.844;10.098;2023-04-25T08:50:02;3.53;;;2.97;;
48215;SDS011;34005;48.844;10.098;2023-04-25T08:52:32;3.15;;;2.50;;
48215;SDS011;34005;48.844;10.098;2023-04-25T08:55:03;3.15;;;2.83;;
48215;SDS011;34005;48.844;10.098;2023-04-25T08:57:34;3.15;;;2.92;;
48215;SDS011;34005;48.844;10.098;2023-04-25T09:00:03;2.90;;;2.70;;
48215;SDS011;34005;48.844;10.098;2023-04-25T09:02:33;2.70;;;2.50;;
48215;SDS011;34005;48.844;10.098;2023-04-25T09:05:01;3.00;;;2.72;;
48215;SDS011;34005;48.844;10.098;2023-04-25T09:07:30;3.50;;;2.72;;
48215;SDS011;34005;48.844;10.098;2023-04-25T09:09:57;2.40;;;2.22;;
48215;SDS011;34005;48.844;10.098;2023-04-25T09:12:28;2.78;;;2.42;;
48215;SDS011;34005;48.844;10.098;2023-04-25T09:15:06;2.30;;;1.80;;
48215;SDS011;34005;48.844;10.098;2023-04-25T09:17:36;3.40;;;2.22;;
48215;SDS011;34005;48.844;10.098;2023-04-25T09:20:07;2.55;;;2.35;;
48215;SDS011;34005;48.844;10.098;2023-04-25T09:22:36;2.35;;;2.15;;
48215;SDS011;34005;48.844;10.098;2023-04-25T09:25:08;2.97;;;2.20;;
48215;SDS011;34005;48.844;10.098;2023-04-25T09:27:36;3.22;;;2.40;;
48215;SDS011;34005;48.844;10.098;2023-04-25T09:30:17;2.60;;;2.40;;
48215;SDS011;34005;48.844;10.098;2023-04-25T09:32:46;2.90;;;2.60;;
48215;SDS011;34005;48.844;10.098;2023-04-25T09:35:23;2.67;;;2.45;;
48215;SDS011;34005;48.844;10.098;2023-04-25T09:37:51;4.35;;;2.97;;
48215;SDS011;34005;48.844;10.098;2023-04-25T09:40:19;2.67;;;2.25;;
48215;SDS011;34005;48.844;10.098;2023-04-25T09:42:46;3.28;;;2.70;;
48215;SDS011;34005;48.844;10.098;2023-04-25T09:45:14;3.13;;;2.70;;
48215;SDS011;34005;48.844;10.098;2023-04-25T09:47:41;2.97;;;2.40;;
48215;SDS011;34005;48.844;10.098;2023-04-25T09:50:14;5.05;;;2.90;;
48215;SDS011;34005;48.844;10.098;2023-04-25T09:52:43;2.78;;;2.55;;
48215;SDS011;34005;48.844;10.098;2023-04-25T09:55:11;5.35;;;3.42;;
48215;SDS011;34005;48.844;10.098;2023-04-25T09:57:39;6.53;;;3.55;;
48215;SDS011;34005;48.844;10.098;2023-04-25T10:00:08;3.83;;;2.70;;
48215;SDS011;34005;48.844;10.098;2023-04-25T10:02:39;3.90;;;3.50;;
48215;SDS011;34005;48.844;10.098;2023-04-25T10:05:10;6.78;;;2.83;;
48215;SDS011;34005;48.844;10.098;2023-04-25T10:07:39;5.20;;;2.90;;
48215;SDS011;34005;48.844;10.098;2023-04-25T10:10:08;4.03;;;3.38;;
48215;SDS011;34005;48.844;10.098;2023-04-25T10:12:39;3.45;;;3.15;;
48215;SDS011;34005;48.844;10.098;2023-04-25T10:15:09;3.15;;;2.90;;
48215;SDS011;34005;48.844;10.098;2023-04-25T10:17:39;15.02;;;4.25;;
48215;SDS011;34005;48.844;10.098;2023-04-25T10:20:07;6.82;;;3.30;;
48215;SDS011;34005;48.844;10.098;2023-04-25T10:22:37;5.18;;;3.42;;
48215;SDS011;34005;48.844;10.098;2023-04-25T10:25:09;3.60;;;3.05;;
48215;SDS011;34005;48.844;10.098;2023-04-25T10:27:38;6.40;;;2.78;;
48215;SDS011;34005;48.844;10.098;2023-04-25T10:30:07;7.30;;;3.40;;
48215;SDS011;34005;48.844;10.098;2023-04-25T10:32:38;5.25;;;4.07;;
48215;SDS011;34005;48.844;10.098;2023-04-25T10:35:12;6.32;;;3.75;;
48215;SDS011;34005;48.844;10.098;2023-04-25T10:38:02;4.32;;;3.88;;
48215;SDS011;34005;48.844;10.098;2023-04-25T10:40:31;5.55;;;4.65;;
48215;SDS011;34005;48.844;10.098;2023-04-25T10:46:01;5.38;;;4.25;;
48215;SDS011;34005;48.844;10.098;2023-04-25T10:48:29;5.22;;;3.80;;
48215;SDS011;34005;48.844;10.098;2023-04-25T10:51:07;15.05;;;4.30;;
48215;SDS011;34005;48.844;10.098;2023-04-25T10:53:37;6.82;;;4.32;;
48215;SDS011;34005;48.844;10.098;2023-04-25T10:56:09;7.18;;;4.47;;
48215;SDS011;34005;48.844;10.098;2023-04-25T10:58:43;6.60;;;4.40;;
48215;SDS011;34005;48.844;10.098;2023-04-25T11:01:12;7.10;;;4.60;;
48215;SDS011;34005;48.844;10.098;2023-04-25T11:03:41;5.65;;;4.55;;
48215;SDS011;34005;48.844;10.098;2023-04-25T11:06:12;6.78;;;4.65;;
48215;SDS011;34005;48.844;10.098;2023-04-25T11:08:49;5.20;;;4.47;;
48215;SDS011;34005;48.844;10.098;2023-04-25T11:11:18;5.25;;;4.75;;
48215;SDS011;34005;48.844;10.098;2023-04-25T11:13:47;4.72;;;4.15;;
48215;SDS011;34005;48.844;10.098;2023-04-25T11:16:16;4.90;;;4.43;;
48215;SDS011;34005;48.844;10.098;2023-04-25T11:19:04;4.00;;;3.70;;
48215;SDS011;34005;48.844;10.098;2023-04-25T11:21:32;6.10;;;3.97;;
48215;SDS011;34005;48.844;10.098;2023-04-25T11:24:01;7.35;;;3.83;;
48215;SDS011;34005;48.844;10.098;2023-04-25T11:26:29;5.10;;;4.28;;
48215;SDS011;34005;48.844;10.098;2023-04-25T11:28:57;4.45;;;3.35;;
48215;SDS011;34005;48.844;10.098;2023-04-25T11:31:26;5.68;;;3.67;;
48215;SDS011;34005;48.844;10.098;2023-04-25T11:33:54;3.78;;;3.40;;
48215;SDS011;34005;48.844;10.098;2023-04-25T11:36:24;5.50;;;3.80;;
48215;SDS011;34005;48.844;10.098;2023-04-25T11:38:53;4.97;;;3.63;;
48215;SDS011;34005;48.844;10.098;2023-04-25T11:41:22;3.83;;;3.53;;
48215;SDS011;34005;48.844;10.098;2023-04-25T11:43:50;7.05;;;4.93;;
48215;SDS011;34005;48.844;10.098;2023-04-25T11:46:21;6.20;;;4.10;;
48215;SDS011;34005;48.844;10.098;2023-04-25T11:48:49;5.13;;;3.90;;
48215;SDS011;34005;48.844;10.098;2023-04-25T11:51:17;4.82;;;3.78;;
48215;SDS011;34005;48.844;10.098;2023-04-25T11:53:44;5.32;;;4.82;;
48215;SDS011;34005;48.844;10.098;2023-04-25T11:56:12;4.20;;;3.80;;
48215;SDS011;34005;48.844;10.098;2023-04-25T12:01:27;3.63;;;3.28;;
48215;SDS011;34005;48.844;10.098;2023-04-25T12:04:09;2.65;;;2.45;;
48215;SDS011;34005;48.844;10.098;2023-04-25T12:06:39;3.10;;;2.45;;
48215;SDS011;34005;48.844;10.098;2023-04-25T12:09:07;2.15;;;2.00;;
48215;SDS011;34005;48.844;10.098;2023-04-25T12:11:42;1.90;;;1.80;;
48215;SDS011;34005;48.844;10.098;2023-04-25T12:14:12;2.42;;;2.15;;
48215;SDS011;34005;48.844;10.098;2023-04-25T12:16:47;3.60;;;3.05;;
48215;SDS011;34005;48.844;10.098;2023-04-25T12:19:16;2.70;;;2.50;;
48215;SDS011;34005;48.844;10.098;2023-04-25T12:21:44;4.35;;;2.70;;
48215;SDS011;34005;48.844;10.098;2023-04-25T12:24:23;3.63;;;3.05;;
48215;SDS011;34005;48.844;10.098;2023-04-25T12:26:58;4.70;;;3.53;;
48215;SDS011;34005;48.844;10.098;2023-04-25T12:29:29;5.78;;;4.35;;
48215;SDS011;34005;48.844;10.098;2023-04-25T12:32:13;3.88;;;3.58;;
48215;SDS011;34005;48.844;10.098;2023-04-25T12:34:41;3.95;;;3.55;;
48215;SDS011;34005;48.844;10.098;2023-04-25T12:37:09;5.63;;;3.95;;
48215;SDS011;34005;48.844;10.098;2023-04-25T12:39:37;6.25;;;3.97;;
48215;SDS011;34005;48.844;10.098;2023-04-25T12:42:05;4.97;;;4.07;;
48215;SDS011;34005;48.844;10.098;2023-04-25T12:44:36;4.18;;;3.78;;
48215;SDS011;34005;48.844;10.098;2023-04-25T12:47:04;3.83;;;3.53;;
48215;SDS011;34005;48.844;10.098;2023-04-25T12:49:32;4.07;;;3.38;;
48215;SDS011;34005;48.844;10.098;2023-04-25T12:51:59;4.20;;;3.10;;
48215;SDS011;34005;48.844;10.098;2023-04-25T12:54:27;3.50;;;3.03;;
48215;SDS011;34005;48.844;10.098;2023-04-25T12:56:54;3.47;;;3.10;;
48215;SDS011;34005;48.844;10.098;2023-04-25T12:59:22;4.00;;;2.95;;
48215;SDS011;34005;48.844;10.098;2023-04-25T13:01:51;3.72;;;3.13;;
48215;SDS011;34005;48.844;10.098;2023-04-25T13:04:19;3.38;;;3.08;;
48215;SDS011;34005;48.844;10.098;2023-04-25T13:06:47;3.50;;;3.03;;
48215;SDS011;34005;48.844;10.098;2023-04-25T13:09:15;2.97;;;2.72;;
48215;SDS011;34005;48.844;10.098;2023-04-25T13:11:43;3.50;;;2.95;;
48215;SDS011;34005;48.844;10.098;2023-04-25T13:14:12;3.22;;;2.65;;
48215;SDS011;34005;48.844;10.098;2023-04-25T13:16:39;3.15;;;2.80;;
48215;SDS011;34005;48.844;10.098;2023-04-25T13:19:08;3.20;;;2.90;;
48215;SDS011;34005;48.844;10.098;2023-04-25T13:21:37;2.90;;;2.60;;
48215;SDS011;34005;48.844;10.098;2023-04-25T13:24:05;2.63;;;2.42;;
48215;SDS011;34005;48.844;10.098;2023-04-25T13:26:33;3.20;;;2.90;;
48215;SDS011;34005;48.844;10.098;2023-04-25T13:29:01;4.00;;;3.17;;
48215;SDS011;34005;48.844;10.098;2023-04-25T13:33:58;3.60;;;3.20;;
48215;SDS011;34005;48.844;10.098;2023-04-25T13:36:27;4.45;;;3.63;;
48215;SDS011;34005;48.844;10.098;2023-04-25T13:38:55;4.30;;;3.38;;
48215;SDS011;34005;48.844;10.098;2023-04-25T13:41:22;3.97;;;3.33;;
48215;SDS011;34005;48.844;10.098;2023-04-25T13:43:50;4.88;;;3.38;;
48215;SDS011;34005;48.844;10.098;2023-04-25T13:46:18;3.83;;;3.05;;
48215;SDS011;34005;48.844;10.098;2023-04-25T13:49:06;4.35;;;3.25;;
48215;SDS011;34005;48.844;10.098;2023-04-25T13:51:40;6.40;;;4.05;;
48215;SDS011;34005;48.844;10.098;2023-04-25T13:54:08;4.35;;;3.88;;
48215;SDS011;34005;48.844;10.098;2023-04-25T13:56:36;3.90;;;3.50;;
48215;SDS011;34005;48.844;10.098;2023-04-25T13:59:03;4.57;;;4.07;;
48215;SDS011;34005;48.844;10.098;2023-04-25T14:01:31;4.97;;;3.55;;
48215;SDS011;34005;48.844;10.098;2023-04-25T14:04:00;6.85;;;4.47;;
48215;SDS011;34005;48.844;10.098;2023-04-25T14:06:30;3.47;;;3.10;;
48215;SDS011;34005;48.844;10.098;2023-04-25T14:08:59;4.32;;;3.35;;
48215;SDS011;34005;48.844;10.098;2023-04-25T14:11:27;6.10;;;4.80;;
48215;SDS011;34005;48.844;10.098;2023-04-25T14:13:55;6.32;;;4.20;;
48215;SDS011;34005;48.844;10.098;2023-04-25T14:16:23;2.78;;;1.70;;
48215;SDS011;34005;48.844;10.098;2023-04-25T14:18:51;1.92;;;1.20;;
48215;SDS011;34005;48.844;10.098;2023-04-25T14:21:18;1.33;;;1.00;;
48215;SDS011;34005;48.844;10.098;2023-04-25T14:23:47;1.85;;;1.13;;
48215;SDS011;34005;48.844;10.098;2023-04-25T14:26:16;2.10;;;1.35;;
48215;SDS011;34005;48.844;10.098;2023-04-25T14:28:44;1.67;;;1.40;;
48215;SDS011;34005;48.844;10.098;2023-04-25T14:31:11;1.63;;;1.42;;
48215;SDS011;34005;48.844;10.098;2023-04-25T14:33:39;1.73;;;1.63;;
48215;SDS011;34005;48.844;10.098;2023-04-25T14:36:08;3.38;;;1.50;;
48215;SDS011;34005;48.844;10.098;2023-04-25T14:38:36;2.47;;;1.52;;
48215;SDS011;34005;48.844;10.098;2023-04-25T14:41:04;1.40;;;1.30;;
48215;SDS011;34005;48.844;10.098;2023-04-25T14:43:33;1.70;;;1.58;;
48215;SDS011;34005;48.844;10.098;2023-04-25T14:46:00;1.70;;;1.60;;
48215;SDS011;34005;48.844;10.098;2023-04-25T14:48:28;2.20;;;2.00;;
48215;SDS011;34005;48.844;10.098;2023-04-25T14:50:57;3.03;;;1.83;;
48215;SDS011;34005;48.844;10.098;2023-04-25T14:53:24;2.15;;;1.92;;
48215;SDS011;34005;48.844;10.098;2023-04-25T14:55:52;3.10;;;2.15;;
48215;SDS011;34005;48.844;10.098;2023-04-25T14:58:20;1.52;;;1.42;;
48215;SDS011;34005;48.844;10.098;2023-04-25T15:00:50;1.80;;;1.50;;
48215;SDS011;34005;48.844;10.098;2023-04-25T15:03:18;1.70;;;1.60;;
48215;SDS011;34005;48.844;10.098;2023-04-25T15:05:46;2.03;;;1.60;;
48215;SDS011;34005;48.844;10.098;2023-04-25T15:08:13;3.45;;;1.90;;
48215;SDS011;34005;48.844;10.098;2023-04-25T15:10:41;3.53;;;1.88;;
48215;SDS011;34005;48.844;10.098;2023-04-25T15:13:09;2.83;;;2.25;;
48215;SDS011;34005;48.844;10.098;2023-04-25T15:15:36;2.63;;;2.42;;
48215;SDS011;34005;48.844;10.098;2023-04-25T15:18:05;4.47;;;2.53;;
48215;SDS011;34005;48.844;10.098;2023-04-25T15:20:33;3.35;;;1.80;;
48215;SDS011;34005;48.844;10.098;2023-04-25T15:23:01;2.22;;;2.00;;
48215;SDS011;34005;48.844;10.098;2023-04-25T15:25:31;2.25;;;1.63;;
48215;SDS011;34005;48.844;10.098;2023-04-25T15:27:58;4.15;;;2.05;;
48215;SDS011;34005;48.844;10.098;2023-04-25T15:30:26;3.53;;;1.92;;
48215;SDS011;34005;48.844;10.098;2023-04-25T15:32:53;2.88;;;2.15;;
48215;SDS011;34005;48.844;10.098;2023-04-25T15:35:22;3.85;;;2.22;;
48215;SDS011;34005;48.844;10.098;2023-04-25T15:37:50;2.42;;;2.22;;
48215;SDS011;34005;48.844;10.098;2023-04-25T15:40:18;2.58;;;2.30;;
48215;SDS011;34005;48.844;10.098;2023-04-25T15:42:46;3.47;;;2.17;;
48215;SDS011;34005;48.844;10.098;2023-04-25T15:45:17;6.15;;;2.70;;
48215;SDS011;34005;48.844;10.098;2023-04-25T15:47:45;3.13;;;2.25;;
48215;SDS011;34005;48.844;10.098;2023-04-25T15:50:13;4.55;;;2.45;;
48215;SDS011;34005;48.844;10.098;2023-04-25T15:52:42;2.53;;;1.98;;
48215;SDS011;34005;48.844;10.098;2023-04-25T15:55:11;2.30;;;1.90;;
48215;SDS011;34005;48.844;10.098;2023-04-25T15:57:39;2.50;;;1.90;;
48215;SDS011;34005;48.844;10.098;2023-04-25T16:00:07;2.92;;;2.45;;
48215;SDS011;34005;48.844;10.098;2023-04-25T16:02:38;3.80;;;2.35;;
48215;SDS011;34005;48.844;10.098;2023-04-25T16:05:07;4.32;;;2.58;;
48215;SDS011;34005;48.844;10.098;2023-04-25T16:07:36;3.35;;;2.30;;
48215;SDS011;34005;48.844;10.098;2023-04-25T16:10:06;3.22;;;2.30;;
48215;SDS011;34005;48.844;10.098;2023-04-25T16:12:34;2.70;;;2.17;;
48215;SDS011;34005;48.844;10.098;2023-04-25T16:15:02;3.85;;;2.83;;
48215;SDS011;34005;48.844;10.098;2023-04-25T16:17:30;3.88;;;2.63;;
48215;SDS011;34005;48.844;10.098;2023-04-25T16:19:58;2.60;;;2.40;;
48215;SDS011;34005;48.844;10.098;2023-04-25T16:22:29;3.60;;;2.42;;
48215;SDS011;34005;48.844;10.098;2023-04-25T16:24:57;3.40;;;3.10;;
48215;SDS011;34005;48.844;10.098;2023-04-25T16:27:26;4.10;;;2.90;;
48215;SDS011;34005;48.844;10.098;2023-04-25T16:29:54;4.22;;;2.83;;
48215;SDS011;34005;48.844;10.098;2023-04-25T16:32:21;4.00;;;3.42;;
48215;SDS011;34005;48.844;10.098;2023-04-25T16:34:49;4.85;;;3.75;;
48215;SDS011;34005;48.844;10.098;2023-04-25T16:37:16;3.80;;;3.50;;
48215;SDS011;34005;48.844;10.098;2023-04-25T16:39:44;5.45;;;3.67;;
48215;SDS011;34005;48.844;10.098;2023-04-25T16:42:12;5.32;;;3.90;;
48215;SDS011;34005;48.844;10.098;2023-04-25T16:44:41;4.60;;;3.50;;
48215;SDS011;34005;48.844;10.098;2023-04-25T16:47:09;3.78;;;3.20;;
48215;SDS011;34005;48.844;10.098;2023-04-25T16:49:42;7.07;;;4.28;;
48215;SDS011;34005;48.844;10.098;2023-04-25T16:52:10;5.47;;;3.58;;
48215;SDS011;34005;48.844;10.098;2023-04-25T16:54:38;8.20;;;4.20;;
48215;SDS011;34005;48.844;10.098;2023-04-25T16:57:07;8.77;;;4.30;;
48215;SDS011;34005;48.844;10.098;2023-04-25T16:59:37;4.97;;;3.55;;
48215;SDS011;34005;48.844;10.098;2023-04-25T17:02:06;5.65;;;3.80;;
48215;SDS011;34005;48.844;10.098;2023-04-25T17:04:38;5.43;;;4.10;;
48215;SDS011;34005;48.844;10.098;2023-04-25T17:07:07;6.47;;;4.43;;
48215;SDS011;34005;48.844;10.098;2023-04-25T17:09:36;6.05;;;4.50;;
48215;SDS011;34005;48.844;10.098;2023-04-25T17:12:04;6.30;;;4.55;;
48215;SDS011;34005;48.844;10.098;2023-04-25T17:14:33;4.72;;;3.95;;
48215;SDS011;34005;48.844;10.098;2023-04-25T17:17:02;4.97;;;3.33;;
48215;SDS011;34005;48.844;10.098;2023-04-25T17:19:32;4.07;;;3.50;;
48215;SDS011;34005;48.844;10.098;2023-04-25T17:22:00;4.30;;;3.67;;
48215;SDS011;34005;48.844;10.098;2023-04-25T17:24:28;4.38;;;3.75;;
48215;SDS011;34005;48.844;10.098;2023-04-25T17:26:57;4.40;;;3.65;;
48215;SDS011;34005;48.844;10.098;2023-04-25T17:29:27;4.65;;;3.58;;
48215;SDS011;34005;48.844;10.098;2023-04-25T17:31:54;4.57;;;4.07;;
48215;SDS011;34005;48.844;10.098;2023-04-25T17:34:26;6.65;;;4.28;;
48215;SDS011;34005;48.844;10.098;2023-04-25T17:36:56;6.45;;;4.18;;
48215;SDS011;34005;48.844;10.098;2023-04-25T17:39:26;6.45;;;4.15;;
48215;SDS011;34005;48.844;10.098;2023-04-25T17:41:59;8.98;;;4.70;;
48215;SDS011;34005;48.844;10.098;2023-04-25T17:44:34;5.40;;;3.88;;
48215;SDS011;34005;48.844;10.098;2023-04-25T17:47:03;7.35;;;5.38;;
48215;SDS011;34005;48.844;10.098;2023-04-25T17:49:35;8.02;;;5.13;;
48215;SDS011;34005;48.844;10.098;2023-04-25T17:52:24;7.53;;;5.85;;
48215;SDS011;34005;48.844;10.098;2023-04-25T17:54:54;6.90;;;5.63;;
48215;SDS011;34005;48.844;10.098;2023-04-25T17:57:51;6.75;;;5.03;;
48215;SDS011;34005;48.844;10.098;2023-04-25T18:00:19;9.02;;;5.88;;
48215;SDS011;34005;48.844;10.098;2023-04-25T18:02:47;9.77;;;6.57;;
48215;SDS011;34005;48.844;10.098;2023-04-25T18:05:16;8.10;;;5.93;;
48215;SDS011;34005;48.844;10.098;2023-04-25T18:07:45;8.93;;;5.95;;
48215;SDS011;34005;48.844;10.098;2023-04-25T18:10:13;7.03;;;5.25;;
48215;SDS011;34005;48.844;10.098;2023-04-25T18:12:41;10.50;;;6.25;;
48215;SDS011;34005;48.844;10.098;2023-04-25T18:15:09;7.45;;;5.88;;
48215;SDS011;34005;48.844;10.098;2023-04-25T18:17:36;7.60;;;5.47;;
48215;SDS011;34005;48.844;10.098;2023-04-25T18:20:06;5.60;;;5.03;;
48215;SDS011;34005;48.844;10.098;2023-04-25T18:22:37;6.80;;;5.88;;
48215;SDS011;34005;48.844;10.098;2023-04-25T18:25:06;7.28;;;4.80;;